Aérodrome de Castelnaudary-Villeneuve

LFMW · Occitanie, Frankreich

1. Oktober 2022

Uhrzeit Code Wetter Temp. Sichtweite Wolkendecke Wind METAR/SPECI
17:30
V
21 °C 10 km+ - 220° 220° 6 kt METAR LESU 011530Z 22006KT 190V270 CAVOK 21/06 Q1025
17:00
V
21 °C 10 km+ - 220° 220° 6 kt METAR LESU 011500Z 22006KT 170V260 CAVOK 21/06 Q1025
16:30
V
21 °C 10 km+ - 200° 200° 3 kt METAR LESU 011430Z 20003KT 130V270 CAVOK 21/05 Q1025
16:00
V
21 °C 10 km+ - Var Var 3 kt METAR LESU 011400Z VRB03KT CAVOK 21/05 Q1025
15:30
V
19 °C 10 km+ - 190° 190° 4 kt METAR LESU 011330Z 19004KT 150V250 CAVOK 19/04 Q1025
15:00
V
19 °C 10 km+ - Var Var 2 kt METAR LESU 011300Z VRB02KT CAVOK 19/02 Q1025
14:30
V
18 °C 10 km+ - 170° 170° 3 kt METAR LESU 011230Z 17003KT 100V220 CAVOK 18/00 Q1026
14:00
V
17 °C 10 km+ - 120° 120° 3 kt METAR LESU 011200Z 12003KT 050V170 CAVOK 17/01 Q1026
13:30
V
16 °C 10 km+ - Var Var 2 kt METAR LESU 011130Z VRB02KT CAVOK 16/00 Q1026
13:00
V
14 °C 10 km+ - Var Var 3 kt METAR LESU 011100Z VRB03KT CAVOK 14/02 Q1026
12:30
V
13 °C 10 km+ - Var Var 2 kt METAR LESU 011030Z VRB02KT CAVOK 13/03 Q1026
12:00
V
12 °C 10 km+ - 060° 060° 3 kt METAR LESU 011000Z 06003KT 330V130 CAVOK 12/02 Q1026
11:30
V
12 °C 10 km+ - Var Var 1 kt METAR LESU 010930Z VRB01KT CAVOK 12/03 Q1026
11:00
V
9 °C 10 km+ - Var Var 2 kt METAR LESU 010900Z VRB02KT 9999 FEW090 09/03 Q1026
10:30
V
9 °C 10 km+ - Var Var 1 kt METAR LESU 010830Z VRB01KT 9999 FEW090 09/03 Q1026
10:00
V
7 °C 10 km+ - Var Var 2 kt METAR LESU 010800Z VRB02KT 9999 SCT090 07/04 Q1026
09:30
V
5 °C 10 km+ - Var Var 2 kt METAR LESU 010730Z VRB02KT 9999 SCT073 05/02 Q1026
09:00
V
5 °C 10 km+ 9.000 ft Var Var 2 kt METAR LESU 010700Z VRB02KT 9999 BKN090 FEW078 05/01 Q1026

30. September 2022

Uhrzeit Code Wetter Temp. Sichtweite Wolkendecke Wind METAR/SPECI
19:00
V
16 °C 10 km+ - 320° 320° 10 kt METAR LESU 301700Z 32010KT 9999 FEW090 16/00 Q1015
18:30
V
16 °C 10 km+ - 320° 320° 11 kt METAR LESU 301630Z 32011KT 290V350 9999 FEW084 16/M01 Q1014
18:00
V
16 °C 10 km+ - 310° 310° 11 kt METAR LESU 301600Z 31011KT 9999 SCT085 16/M02 Q1014
17:30
V
17 °C 10 km+ - 290° 290° 10 kt METAR LESU 301530Z 29010KT 9999 SCT082 17/M01 Q1014
17:00
V
17 °C 10 km+ - 310° 310° 10 kt METAR LESU 301500Z 31010KT 270V330 9999 SCT082 17/M01 Q1014
16:30
V
17 °C 10 km+ - 290° 290° 11 kt METAR LESU 301430Z 29011KT 240V320 9999 SCT077 17/M00 Q1013
16:00
V
16 °C 10 km+ - 300° 300° 11 kt METAR LESU 301400Z 30011KT 270V330 9999 SCT081 16/M00 Q1013
15:30
V
16 °C 10 km+ - 300° 300° 14 kt METAR LESU 301330Z 30014KT 9999 SCT070 16/M01 Q1013
15:00
V
16 °C 10 km+ - 300° 300° 13 kt METAR LESU 301300Z 30013KT 270V340 9999 SCT070 16/00 Q1013
14:30
V
16 °C 10 km+ 6.500 ft 300° 300° 11 kt METAR LESU 301230Z 30011KT 260V330 9999 BKN065 16/M01 Q1013
14:00
V
16 °C 10 km+ 6.800 ft Var Var 4 kt METAR LESU 301200Z VRB04KT 9999 BKN068 16/02 Q1012
13:30
V
15 °C 10 km+ 5.700 ft 110° 110° 6 kt METAR LESU 301130Z 11006KT 060V150 9999 BKN057 15/03 Q1012
13:00
V
14 °C 10 km+ 6.400 ft Var Var 2 kt METAR LESU 301100Z VRB02KT 9999 BKN064 14/02 Q1012
12:30
V
14 °C 10 km+ - 070° 070° 3 kt METAR LESU 301030Z 07003KT 360V110 9999 SCT063 14/01 Q1012
12:00
V
13 °C 10 km+ - 080° 080° 3 kt METAR LESU 301000Z 08003KT 040V130 9999 SCT064 13/05 Q1012
11:30
V
12 °C 10 km+ - 070° 070° 4 kt METAR LESU 300930Z 07004KT 020V130 9999 SCT068 12/04 Q1012
11:00
V
11 °C 10 km+ - Var Var 2 kt METAR LESU 300900Z VRB02KT 9999 SCT067 11/07 Q1012
10:30
V
9 °C 10 km+ - Var Var 3 kt METAR LESU 300830Z VRB03KT 9999 SCT063 09/07 Q1012
10:00
V
8 °C 10 km+ - 040° 040° 4 kt METAR LESU 300800Z 04004KT 300V090 9999 FEW002 08/06 Q1011

29. September 2022

Uhrzeit Code Wetter Temp. Sichtweite Wolkendecke Wind METAR/SPECI
17:30
M
10 °C 6 km 5.900 ft Var Var 2 kt METAR LESU 291530Z VRB02KT 6000 RA FEW025 SCT049 BKN059 10/09 Q1004
17:00
M
10 °C 6 km 5.400 ft 210° 210° 3 kt METAR LESU 291500Z 21003KT 180V310 6000 RA OVC054 10/10 Q1003
16:46
V
11 °C 9 km 5.200 ft 190° 190° 4 kt METAR LESU 291446Z 19004KT 9000 RA OVC052 11/10 Q1003
Ältere Daten

Wir und Dritte verfolgen dein Internetverhalten auf unserer Website mit Cookies. Wenn du fortfährst, gehen wir davon aus, dass du mit unserer Cookie-Richtlinie einverstanden bist. Mehr erfahren